Cunot, Indiana
Current Conditions -  °F | °C
As of 7:15 PM on Monday 22 Dec 2014 (Local Time) from K4I7 Reporting Station
Overcast Overcast  
Wind Chill: 37°   Ceiling: 2900
Heat Index: 43°   Visibility: 7mi
Dew Point: 37°   Wind: 9mph
Humidity: 81%   Direction: 120°ESE
Pressure: 29.69"   Gusts: NA
Location:  39.5431°N, 86.7779°W
Report Text: K4I7 230015Z AUTO 12008KT 7SM SCT022 BKN029 OVC060 06/03 A2969 RMK AO2
Loading
Personal Weather Stations






























Interactive Weather Map New forecast layout! Learn more

10-Day Weather Forecast

Advertisements
Track Severe Weather on mobile